Time;durP1;ratioP1;P1;durP2;ratioP2;P2;SDS_P1;SDS_P2;PMS_P1;PMS_P2;Temp;Humidity;BMP_temperature;BMP_pressure;BME280_temperature;BME280_humidity;BME280_pressure;Samples;Min_cycle;Max_cycle;Signal;HPM_P1;HPM_P2
2023/08/09 00:00:58;;;;;;;0.40;0.40;;;;;;;16.09;100.00;97740.84;1223851;75;2911326;-68
2023/08/09 00:03:31;;;;;;;0.40;0.40;;;;;;;16.04;100.00;97741.59;1223884;75;2922652;-69
2023/08/09 00:06:03;;;;;;;0.40;0.40;;;;;;;16.07;100.00;97745.38;1223766;75;2927086;-67
2023/08/09 00:08:36;;;;;;;1.00;0.50;;;;;;;15.88;100.00;97742.44;1223668;75;2917244;-69
2023/08/09 00:11:09;;;;;;;0.50;0.50;;;;;;;15.91;100.00;97744.94;1222878;75;2925228;-67
2023/08/09 00:13:44;;;;;;;0.85;0.40;;;;;;;15.88;100.00;97742.44;1222799;75;2921109;-69
2023/08/09 00:16:17;;;;;;;0.35;0.35;;;;;;;15.87;100.00;97733.41;1219690;75;2922711;-67
2023/08/09 00:18:49;;;;;;;0.40;0.40;;;;;;;15.79;100.00;97742.75;1221576;75;2958432;-68
2023/08/09 00:21:22;;;;;;;0.50;0.40;;;;;;;15.87;100.00;97741.69;1222784;75;2927303;-69
2023/08/09 00:23:55;;;;;;;0.40;0.40;;;;;;;15.82;100.00;97747.25;1223825;75;2929543;-69
2023/08/09 00:26:27;;;;;;;0.30;0.30;;;;;;;15.76;100.00;97753.53;1223674;75;2924442;-71
2023/08/09 00:29:02;;;;;;;0.50;0.35;;;;;;;15.82;100.00;97756.25;1224014;75;2930783;-68
2023/08/09 00:31:35;;;;;;;0.45;0.40;;;;;;;15.76;100.00;97747.28;1223104;75;2919898;-70
2023/08/09 00:34:08;;;;;;;0.45;0.30;;;;;;;15.75;100.00;97752.06;1223445;75;2921798;-69
2023/08/09 00:36:41;;;;;;;0.40;0.30;;;;;;;15.75;100.00;97752.06;1223839;75;2920850;-68
2023/08/09 00:39:15;;;;;;;0.30;0.30;;;;;;;15.72;100.00;97758.56;1223540;75;2921846;-69
2023/08/09 00:41:50;;;;;;;0.30;0.30;;;;;;;15.70;100.00;97754.81;1222739;75;2930589;-69
2023/08/09 00:44:25;;;;;;;0.45;0.45;;;;;;;15.60;100.00;97756.34;1223591;75;2925051;-69
2023/08/09 00:46:58;;;;;;;0.40;0.40;;;;;;;15.52;100.00;97754.09;1224028;75;2923128;-70
2023/08/09 00:49:31;;;;;;;0.30;0.30;;;;;;;15.51;100.00;97760.13;1219566;75;3084174;-69
2023/08/09 00:52:04;;;;;;;0.80;0.30;;;;;;;15.64;100.00;97765.13;1223522;75;2925020;-68
2023/08/09 00:54:38;;;;;;;1.05;0.45;;;;;;;15.63;100.00;97758.81;1223109;75;2918934;-68
2023/08/09 00:57:11;;;;;;;0.35;0.30;;;;;;;15.66;100.00;97759.84;1223346;75;2922001;-69
2023/08/09 00:59:46;;;;;;;0.30;0.30;;;;;;;15.61;100.00;97766.09;1223617;75;2931141;-70
2023/08/09 01:02:19;;;;;;;0.45;0.30;;;;;;;15.58;100.00;97769.88;1221992;75;2923733;-69
2023/08/09 01:04:52;;;;;;;0.40;0.40;;;;;;;15.42;100.00;97768.69;1222581;75;2926755;-69
2023/08/09 01:07:35;;;;;;;0.30;0.30;;;;;;;15.15;100.00;97768.22;1223431;75;2921288;-67
2023/08/09 01:10:17;;;;;;;0.60;0.50;;;;;;;15.46;100.00;97771.94;1223532;75;2924839;-68
2023/08/09 01:12:56;;;;;;;0.65;0.60;;;;;;;15.20;100.00;97769.47;1221498;75;2929018;-69
2023/08/09 01:15:32;;;;;;;1.80;0.40;;;;;;;15.22;100.00;97764.97;1223237;75;2923005;-69
2023/08/09 01:18:06;;;;;;;1.05;0.50;;;;;;;15.05;100.00;97765.00;1222777;75;2927478;-70
2023/08/09 01:20:39;;;;;;;0.50;0.40;;;;;;;15.19;100.00;97759.72;1223216;75;2928648;-71
2023/08/09 01:23:20;;;;;;;0.60;0.50;;;;;;;15.27;100.00;97750.44;1223138;75;2925622;-66
2023/08/09 01:25:55;;;;;;;0.70;0.50;;;;;;;15.37;100.00;97744.63;1222553;75;2963924;-71
2023/08/09 01:28:28;;;;;;;0.60;0.40;;;;;;;15.34;100.00;97735.34;1223463;75;2920224;-67
2023/08/09 01:31:01;;;;;;;0.50;0.50;;;;;;;15.39;100.00;97753.13;1221898;75;2929597;-69
2023/08/09 01:33:34;;;;;;;0.90;0.35;;;;;;;15.39;100.00;97750.38;1223903;75;2917796;-69
2023/08/09 01:36:17;;;;;;;0.60;0.50;;;;;;;15.38;100.00;97754.41;1222976;75;2921099;-69
2023/08/09 01:39:06;;;;;;;0.60;0.60;;;;;;;15.31;100.00;97747.41;1223255;75;2925723;-68
2023/08/09 01:41:42;;;;;;;0.80;0.40;;;;;;;15.32;100.00;97741.38;1222577;75;2926865;-67
2023/08/09 01:44:16;;;;;;;0.40;0.40;;;;;;;15.34;100.00;97749.13;1223826;75;2923467;-69
2023/08/09 01:46:49;;;;;;;0.40;0.40;;;;;;;15.25;100.00;97746.66;1222733;75;2925944;-69
2023/08/09 01:49:23;;;;;;;0.45;0.45;;;;;;;15.11;100.00;97751.22;1223213;75;2933774;-71
2023/08/09 01:51:56;;;;;;;1.05;0.65;;;;;;;14.94;100.00;97753.25;1223205;75;2922216;-70
2023/08/09 01:54:28;;;;;;;0.50;0.50;;;;;;;15.13;100.00;97746.69;1223573;75;2921827;-68
2023/08/09 01:57:03;;;;;;;0.60;0.50;;;;;;;15.17;100.00;97738.16;1222937;75;2935571;-68
2023/08/09 01:59:36;;;;;;;0.40;0.40;;;;;;;15.15;100.00;97735.13;1224230;75;2921479;-68
2023/08/09 02:02:09;;;;;;;0.90;0.60;;;;;;;15.06;100.00;97740.94;1222404;75;2929859;-68
2023/08/09 02:04:41;;;;;;;0.65;0.50;;;;;;;15.16;100.00;97741.44;1223330;75;2920981;-70
2023/08/09 02:07:14;;;;;;;0.40;0.40;;;;;;;15.19;100.00;97740.41;1224812;75;2915490;-70
2023/08/09 02:09:47;;;;;;;0.95;0.50;;;;;;;15.18;100.00;97736.91;1224534;83;2922117;-67
2023/08/09 02:12:22;;;;;;;0.40;0.40;;;;;;;15.01;100.00;97736.16;1223398;75;2925104;-69
2023/08/09 02:14:55;;;;;;;0.55;0.45;;;;;;;14.93;100.00;97737.94;1224194;75;2917998;-69
2023/08/09 02:17:27;;;;;;;0.40;0.40;;;;;;;15.03;100.00;97733.66;1223963;75;2920253;-69
2023/08/09 02:20:00;;;;;;;0.40;0.40;;;;;;;14.78;100.00;97738.97;1223420;75;2926206;-71
2023/08/09 02:22:40;;;;;;;0.40;0.40;;;;;;;14.66;100.00;97740.22;1222241;75;2936262;-69
2023/08/09 02:25:16;;;;;;;0.50;0.50;;;;;;;14.75;100.00;97734.47;1223261;75;2934943;-70
2023/08/09 02:27:51;;;;;;;0.45;0.45;;;;;;;14.67;100.00;97741.72;1222959;75;2926224;-68
2023/08/09 02:30:24;;;;;;;0.45;0.45;;;;;;;14.92;100.00;97748.22;1223622;75;2942189;-68
2023/08/09 02:32:56;;;;;;;0.40;0.40;;;;;;;14.79;100.00;97746.00;1222833;75;2918442;-67
2023/08/09 02:35:35;;;;;;;0.75;0.70;;;;;;;14.68;100.00;97743.97;1222055;75;2929900;-69
2023/08/09 02:38:07;;;;;;;0.40;0.40;;;;;;;14.70;100.00;97747.00;1223668;75;2929559;-68
2023/08/09 02:40:41;;;;;;;0.45;0.45;;;;;;;14.78;100.00;97735.47;1223336;75;2923409;-67
2023/08/09 02:43:16;;;;;;;0.90;0.70;;;;;;;14.51;100.00;97745.22;1223268;75;2921534;-70
2023/08/09 02:45:49;;;;;;;0.50;0.50;;;;;;;14.78;100.00;97741.72;1223670;75;2931107;-67
2023/08/09 02:48:23;;;;;;;0.40;0.40;;;;;;;14.85;100.00;97735.69;1223282;75;2927839;-69
2023/08/09 02:50:55;;;;;;;0.50;0.50;;;;;;;14.88;100.00;97737.44;1224739;75;2921720;-66
2023/08/09 02:53:41;;;;;;;0.70;0.70;;;;;;;14.70;100.00;97737.97;1223982;75;2922199;-68
2023/08/09 02:56:13;;;;;;;0.50;0.50;;;;;;;14.56;100.00;97738.97;1223444;75;2928054;-68
2023/08/09 02:58:48;;;;;;;0.75;0.60;;;;;;;14.36;100.00;97739.91;1224110;75;2927285;-67
2023/08/09 03:01:21;;;;;;;0.45;0.45;;;;;;;14.49;100.00;97743.69;1223285;75;2920413;-67
2023/08/09 03:03:55;;;;;;;1.25;0.70;;;;;;;14.43;100.00;97744.94;1223958;75;2922073;-70
2023/08/09 03:06:29;;;;;;;0.65;0.55;;;;;;;14.38;100.00;97746.47;1224081;75;2919784;-69
2023/08/09 03:09:03;;;;;;;1.10;0.60;;;;;;;14.29;100.00;97746.69;1218702;75;3052359;-69
2023/08/09 03:11:35;;;;;;;0.70;0.70;;;;;;;14.11;100.00;97742.38;1223646;75;2931084;-71
2023/08/09 03:14:13;;;;;;;1.35;0.80;;;;;;;14.36;100.00;97743.44;1222178;75;2944287;-66
2023/08/09 03:16:46;;;;;;;0.60;0.60;;;;;;;14.44;100.00;97749.22;1222624;75;2929828;-68
2023/08/09 03:19:19;;;;;;;0.70;0.60;;;;;;;14.23;100.00;97746.66;1223779;75;2923033;-70
2023/08/09 03:21:52;;;;;;;1.70;0.70;;;;;;;14.25;100.00;97740.66;1222708;75;2928302;-71
2023/08/09 03:24:25;;;;;;;1.40;0.60;;;;;;;14.29;100.00;97746.69;1224031;75;2924033;-68
2023/08/09 03:26:58;;;;;;;1.05;0.50;;;;;;;14.27;100.00;97752.69;1221853;75;2950775;-67
2023/08/09 03:29:33;;;;;;;1.10;0.60;;;;;;;14.34;100.00;97756.22;1222723;75;2933032;-66
2023/08/09 03:32:06;;;;;;;1.00;0.40;;;;;;;14.23;100.00;97749.41;1223264;75;2919395;-67
2023/08/09 03:34:39;;;;;;;0.40;0.40;;;;;;;14.31;100.00;97749.69;1223735;75;2924249;-70
2023/08/09 03:37:12;;;;;;;0.90;0.60;;;;;;;14.26;100.00;97753.94;1223376;75;2927137;-68
2023/08/09 03:39:44;;;;;;;1.40;0.70;;;;;;;14.06;100.00;97752.13;1224048;75;2923661;-69
2023/08/09 03:42:17;;;;;;;1.10;0.60;;;;;;;14.00;100.00;97756.16;1223172;75;2923422;-72
2023/08/09 03:44:52;;;;;;;1.25;0.85;;;;;;;14.13;100.00;97761.16;1223633;75;2927452;-68
2023/08/09 03:47:24;;;;;;;1.00;0.50;;;;;;;14.19;100.00;97768.19;1223174;75;2923616;-70
2023/08/09 03:49:57;;;;;;;1.30;0.50;;;;;;;14.17;100.00;97761.69;1223714;75;2922068;-66
2023/08/09 03:52:30;;;;;;;0.40;0.40;;;;;;;14.17;100.00;97767.94;1221653;75;2923830;-69
2023/08/09 03:55:02;;;;;;;1.05;0.70;;;;;;;13.99;100.00;97762.88;1223395;75;2927080;-66
2023/08/09 03:57:35;;;;;;;0.80;0.70;;;;;;;13.81;100.00;97759.34;1224488;75;2919753;-69
2023/08/09 04:00:17;;;;;;;2.00;0.80;;;;;;;13.98;100.00;97753.13;1223183;75;2926800;-68
2023/08/09 04:02:50;;;;;;;1.25;1.00;;;;;;;14.12;100.00;97748.66;1222543;75;2925837;-68
2023/08/09 04:05:23;;;;;;;0.90;0.80;;;;;;;14.09;100.00;97752.41;1222748;75;2927093;-67
2023/08/09 04:07:57;;;;;;;1.45;0.70;;;;;;;14.20;100.00;97760.69;1224447;75;2922731;-70
2023/08/09 04:10:30;;;;;;;1.30;0.70;;;;;;;13.91;100.00;97754.34;1213071;75;3612264;-70
2023/08/09 04:13:02;;;;;;;0.70;0.60;;;;;;;14.16;100.00;97760.91;1222711;75;2926130;-66
2023/08/09 04:15:38;;;;;;;0.70;0.50;;;;;;;14.24;100.00;97759.19;1223196;75;2921929;-69
2023/08/09 04:18:10;;;;;;;1.90;0.65;;;;;;;14.18;100.00;97757.69;1222736;75;2926585;-67
2023/08/09 04:20:43;;;;;;;0.90;0.70;;;;;;;14.01;100.00;97754.88;1223201;75;2927779;-69
2023/08/09 04:23:16;;;;;;;0.70;0.70;;;;;;;13.92;100.00;97763.38;1223168;75;2923265;-69
2023/08/09 04:25:48;;;;;;;0.50;0.50;;;;;;;14.09;100.00;97763.41;1223830;75;2920872;-68
2023/08/09 04:28:21;;;;;;;1.00;0.80;;;;;;;14.01;100.00;97758.38;1223563;75;2924850;-67
2023/08/09 04:30:56;;;;;;;0.70;0.70;;;;;;;13.93;100.00;97765.63;1222779;75;2922993;-69
2023/08/09 04:33:29;;;;;;;0.65;0.60;;;;;;;14.09;100.00;97777.16;1222713;75;2929215;-67
2023/08/09 04:36:02;;;;;;;1.25;0.90;;;;;;;14.07;100.00;97772.19;1222708;75;2925640;-67
2023/08/09 04:38:34;;;;;;;1.40;1.10;;;;;;;14.20;100.00;97777.22;1223553;75;2929317;-70
2023/08/09 04:41:07;;;;;;;1.00;0.80;;;;;;;14.31;100.00;97779.22;1222573;75;2920428;-69
2023/08/09 04:43:40;;;;;;;3.10;2.00;;;;;;;14.38;100.00;97789.75;1222253;75;2924030;-67
2023/08/09 04:46:16;;;;;;;2.80;2.30;;;;;;;14.65;100.00;97782.81;1222603;75;2932988;-67
2023/08/09 04:48:49;;;;;;;3.45;2.85;;;;;;;14.74;100.00;97784.56;1221900;75;2926307;-68
2023/08/09 04:51:22;;;;;;;6.75;5.65;;;;;;;14.61;100.00;97790.56;1222185;75;2938251;-68
2023/08/09 04:53:55;;;;;;;8.30;6.25;;;;;;;14.35;100.00;97786.00;1222982;75;2928777;-68
2023/08/09 04:56:27;;;;;;;4.10;3.30;;;;;;;14.39;100.00;97792.00;1223401;75;2927354;-67
2023/08/09 04:59:00;;;;;;;4.05;3.30;;;;;;;14.72;100.00;97793.34;1222553;75;2969716;-70
2023/08/09 05:01:36;;;;;;;5.55;3.70;;;;;;;14.72;100.00;97790.59;1223078;75;2925568;-65
2023/08/09 05:04:09;;;;;;;5.05;2.60;;;;;;;14.77;100.00;97778.81;1219194;75;3071550;-68
2023/08/09 05:06:42;;;;;;;3.35;2.45;;;;;;;14.68;100.00;97784.56;1221932;75;2925880;-69
2023/08/09 05:09:14;;;;;;;6.00;4.45;;;;;;;15.07;100.00;97773.50;1222464;75;2922448;-67
2023/08/09 05:11:47;;;;;;;7.95;5.20;;;;;;;15.33;100.00;97775.97;1222411;75;2929146;-69
2023/08/09 05:14:19;;;;;;;4.65;3.75;;;;;;;15.40;100.00;97771.22;1223071;75;2929704;-66
2023/08/09 05:16:55;;;;;;;5.45;3.10;;;;;;;15.58;100.00;97780.94;1222249;75;2925296;-70
2023/08/09 05:19:27;;;;;;;4.20;3.55;;;;;;;15.70;100.00;97771.38;1221911;75;2937240;-69
2023/08/09 05:22:00;;;;;;;2.90;2.20;;;;;;;15.71;100.00;97779.16;1222157;75;2938327;-68
2023/08/09 05:24:32;;;;;;;2.30;1.70;;;;;;;15.72;100.00;97774.38;1223134;75;2928204;-69
2023/08/09 05:27:05;;;;;;;2.35;1.65;;;;;;;15.96;100.00;97779.31;1223161;75;2922549;-66
2023/08/09 05:29:38;;;;;;;1.70;1.25;;;;;;;16.07;100.00;97779.25;1223839;75;2923581;-70
2023/08/09 05:32:13;;;;;;;1.60;1.05;;;;;;;16.13;100.00;97779.22;1222696;75;2922087;-68
2023/08/09 05:34:45;;;;;;;2.65;1.80;;;;;;;15.69;100.00;97775.38;1222901;75;2923193;-66
2023/08/09 05:37:18;;;;;;;2.05;1.30;;;;;;;15.98;100.00;97780.28;1223014;75;2928252;-68
2023/08/09 05:39:51;;;;;;;2.65;1.20;;;;;;;16.22;100.00;97778.16;1223095;75;2931379;-70
2023/08/09 05:42:23;;;;;;;1.15;1.00;;;;;;;16.18;100.00;97776.41;1222801;75;2922637;-68
2023/08/09 05:44:59;;;;;;;1.35;1.00;;;;;;;16.36;100.00;97771.56;1223622;75;2917717;-69
2023/08/09 05:47:34;;;;;;;1.65;1.10;;;;;;;16.24;100.00;97768.09;1220983;75;2926926;-68
2023/08/09 05:50:11;;;;;;;1.70;1.20;;;;;;;16.30;100.00;97768.06;1191679;75;4139047;-66
2023/08/09 05:52:48;;;;;;;1.65;0.95;;;;;;;16.72;100.00;97769.53;1216724;75;3049331;-65
2023/08/09 05:55:21;;;;;;;1.80;1.20;;;;;;;16.55;100.00;97757.88;1221790;75;2940931;-68
2023/08/09 05:57:53;;;;;;;1.35;0.90;;;;;;;16.60;100.00;97757.81;1221269;75;2926570;-69
2023/08/09 06:00:30;;;;;;;2.00;1.20;;;;;;;16.90;100.00;97762.63;1103527;75;10130830;-68
2023/08/09 06:03:21;;;;;;;1.20;0.90;;;;;;;16.89;100.00;97758.34;1184063;75;4103631;-68
2023/08/09 06:05:53;;;;;;;1.70;1.10;;;;;;;16.91;100.00;97760.59;1106365;75;8050922;-69
2023/08/09 06:08:26;;;;;;;2.45;1.30;;;;;;;16.75;100.00;97754.66;1222961;75;2890806;-68
2023/08/09 06:10:59;;;;;;;2.90;1.65;;;;;;;16.57;100.00;97769.91;1222079;75;2928703;-69
2023/08/09 06:13:31;;;;;;;2.65;1.30;;;;;;;16.75;100.00;97773.28;1219174;75;2928240;-68
2023/08/09 06:16:04;;;;;;;4.50;2.10;;;;;;;16.58;100.00;97768.63;1222313;75;2934732;-69
2023/08/09 06:18:39;;;;;;;2.65;1.65;;;;;;;16.91;100.00;97772.44;1222839;75;2932576;-68
2023/08/09 06:21:13;;;;;;;2.85;2.00;;;;;;;16.91;100.00;97766.91;1221129;75;2941681;-69
2023/08/09 06:23:45;;;;;;;3.80;1.30;;;;;;;17.15;100.00;97754.34;1222768;75;2926253;-67
2023/08/09 06:26:18;;;;;;;2.55;1.60;;;;;;;17.34;100.00;97759.94;1222563;75;2922019;-67
2023/08/09 06:28:51;;;;;;;1.70;1.15;;;;;;;17.65;98.98;97758.56;1222080;67;2934470;-69
2023/08/09 06:31:24;;;;;;;2.40;1.35;;;;;;;17.74;94.31;97760.25;1221451;75;2918328;-68
2023/08/09 06:33:59;;;;;;;5.50;1.80;;;;;;;17.34;100.00;97759.94;1222803;75;2886018;-68
2023/08/09 06:36:32;;;;;;;4.25;2.10;;;;;;;17.30;95.33;97759.50;1220883;75;2923313;-69
2023/08/09 06:39:05;;;;;;;3.30;1.90;;;;;;;17.30;94.69;97765.03;1223460;75;2931058;-66
2023/08/09 06:41:37;;;;;;;6.90;2.35;;;;;;;17.24;95.71;97765.06;1216785;75;3281581;-68
2023/08/09 06:44:10;;;;;;;3.00;2.00;;;;;;;17.33;94.88;97770.25;1219931;75;3068530;-68
2023/08/09 06:46:44;;;;;;;4.70;2.25;;;;;;;17.10;96.11;97766.97;1223090;75;2922760;-68
2023/08/09 06:49:19;;;;;;;3.95;2.25;;;;;;;17.51;94.64;97762.50;1222679;75;2931399;-65
2023/08/09 06:51:52;;;;;;;3.45;1.95;;;;;;;17.35;94.69;97761.44;1222070;75;2926069;-68
2023/08/09 06:54:24;;;;;;;3.80;2.05;;;;;;;17.40;95.44;97757.88;1223347;75;2919826;-71
2023/08/09 06:56:57;;;;;;;4.35;2.30;;;;;;;17.67;93.10;97761.56;1223370;75;2925619;-67
2023/08/09 06:59:29;;;;;;;2.80;1.65;;;;;;;18.10;90.49;97769.88;1223070;75;2926184;-70
2023/08/09 07:02:02;;;;;;;2.75;1.85;;;;;;;18.24;88.88;97767.16;1221609;67;2924773;-68
2023/08/09 07:04:37;;;;;;;2.35;1.60;;;;;;;18.80;86.04;97763.56;1222861;75;2924347;-69
2023/08/09 07:07:10;;;;;;;3.70;1.95;;;;;;;18.87;83.26;97768.50;1222668;75;2926830;-67
2023/08/09 07:09:43;;;;;;;3.65;1.95;;;;;;;18.48;82.56;97761.53;1223239;75;2930440;-71
2023/08/09 07:12:15;;;;;;;3.00;1.95;;;;;;;18.64;81.93;97765.31;1223933;75;2918953;-69
2023/08/09 07:14:48;;;;;;;3.45;1.80;;;;;;;18.61;81.85;97765.63;1205057;75;4221520;-70
2023/08/09 07:17:20;;;;;;;4.40;1.50;;;;;;;19.13;80.74;97761.50;1222977;75;2925837;-69
2023/08/09 07:19:55;;;;;;;2.05;1.40;;;;;;;19.09;78.55;97770.13;1222772;75;2922382;-67
2023/08/09 07:22:28;;;;;;;4.90;1.50;;;;;;;18.63;79.74;97765.84;1222953;75;2934132;-69
2023/08/09 07:25:01;;;;;;;4.10;1.75;;;;;;;18.53;82.33;97766.22;1221788;75;2952145;-72
2023/08/09 07:27:34;;;;;;;2.90;1.70;;;;;;;19.04;78.22;97754.34;1221742;75;2923558;-67
2023/08/09 07:30:09;;;;;;;1.80;1.10;;;;;;;19.47;75.38;97752.56;1222978;75;2925020;-69
2023/08/09 07:32:42;;;;;;;1.80;1.10;;;;;;;19.47;77.91;97756.06;1221353;75;2932002;-69
2023/08/09 07:35:19;;;;;;;3.15;1.80;;;;;;;19.31;77.68;97759.91;1223054;83;2928477;-69
2023/08/09 07:37:51;;;;;;;3.35;1.50;;;;;;;19.01;77.73;97760.94;1222109;75;2922865;-66
2023/08/09 07:40:24;;;;;;;4.90;2.00;;;;;;;19.53;76.51;97764.28;1222570;75;2919745;-67
2023/08/09 07:42:58;;;;;;;2.85;1.55;;;;;;;19.70;74.38;97763.97;1221771;75;2929158;-70
2023/08/09 07:45:32;;;;;;;3.20;1.50;;;;;;;20.07;74.41;97759.44;1220998;75;2927294;-69
2023/08/09 07:48:05;;;;;;;2.10;1.20;;;;;;;20.18;74.95;97756.44;1222568;75;2925700;-68
2023/08/09 07:50:40;;;;;;;4.25;2.00;;;;;;;19.66;78.52;97755.97;1222551;75;2924735;-68
2023/08/09 07:53:13;;;;;;;3.85;2.05;;;;;;;19.87;76.19;97758.09;1222066;75;2921632;-69
2023/08/09 07:55:45;;;;;;;6.85;1.70;;;;;;;20.03;75.91;97750.69;1222932;75;2923969;-70
2023/08/09 07:58:18;;;;;;;4.30;1.95;;;;;;;19.68;76.47;97749.91;1222904;75;2923912;-68
2023/08/09 08:00:51;;;;;;;5.05;2.20;;;;;;;19.81;79.07;97749.88;1222724;75;2923216;-71
2023/08/09 08:03:24;;;;;;;3.70;1.90;;;;;;;20.05;75.41;97740.53;1222809;75;2917421;-69
2023/08/09 08:05:59;;;;;;;3.15;1.55;;;;;;;20.00;73.23;97738.63;1222181;75;2922149;-70
2023/08/09 08:08:32;;;;;;;3.40;1.40;;;;;;;20.29;71.38;97735.97;1221627;75;2936276;-70
2023/08/09 08:11:05;;;;;;;5.10;2.45;;;;;;;20.45;72.15;97729.28;1221822;75;2922009;-69
2023/08/09 08:13:37;;;;;;;3.10;1.60;;;;;;;20.45;71.47;97734.84;1221335;75;2929223;-70
2023/08/09 08:16:10;;;;;;;3.60;2.05;;;;;;;20.89;69.56;97731.53;1222163;75;2922756;-69
2023/08/09 08:18:42;;;;;;;3.25;1.40;;;;;;;21.24;67.17;97730.09;1222336;75;2922064;-68
2023/08/09 08:21:18;;;;;;;2.05;1.20;;;;;;;21.56;66.90;97726.97;1221925;75;2949615;-70
2023/08/09 08:23:51;;;;;;;3.10;1.45;;;;;;;21.09;69.97;97727.94;1222911;75;2923932;-69
2023/08/09 08:26:25;;;;;;;3.85;1.60;;;;;;;20.92;70.45;97725.59;1223435;75;2918070;-70
2023/08/09 08:28:57;;;;;;;3.80;1.60;;;;;;;20.83;70.09;97723.31;1222920;75;2929201;-69
2023/08/09 08:31:32;;;;;;;2.95;1.80;;;;;;;21.06;71.34;97729.78;1222141;75;2922868;-71
2023/08/09 08:34:05;;;;;;;2.40;1.20;;;;;;;21.66;70.27;97722.34;1221918;75;2917746;-68
2023/08/09 08:36:41;;;;;;;3.00;1.45;;;;;;;21.05;73.58;97733.13;1221121;75;2931709;-69
2023/08/09 08:39:14;;;;;;;4.65;1.60;;;;;;;21.57;71.37;97736.06;1221674;75;2917801;-68
2023/08/09 08:41:50;;;;;;;3.50;1.85;;;;;;;21.02;71.63;97737.00;1220461;75;3025905;-70
2023/08/09 08:44:24;;;;;;;2.60;1.70;;;;;;;20.88;72.25;97732.78;1222707;75;2926203;-69
2023/08/09 08:46:56;;;;;;;2.20;1.40;;;;;;;21.16;70.79;97735.59;1222722;75;2929557;-71
2023/08/09 08:49:30;;;;;;;2.25;1.20;;;;;;;20.80;71.13;97732.75;1222437;75;2924073;-66
2023/08/09 08:52:10;;;;;;;1.50;0.90;;;;;;;21.10;68.83;97735.03;1221136;75;2922920;-69
2023/08/09 08:54:43;;;;;;;2.45;1.30;;;;;;;21.27;68.42;97729.00;1222486;75;2925267;-69
2023/08/09 08:57:18;;;;;;;3.45;1.80;;;;;;;20.51;69.10;97735.44;1222424;75;2926299;-70
2023/08/09 08:59:51;;;;;;;3.65;2.65;;;;;;;21.14;69.27;97729.84;1222630;75;2921251;-67
2023/08/09 09:02:24;;;;;;;3.55;1.80;;;;;;;20.64;71.25;97732.63;1221914;75;2921331;-67
2023/08/09 09:04:57;;;;;;;2.35;1.40;;;;;;;20.71;73.64;97724.88;1222484;75;2925892;-69
2023/08/09 09:07:32;;;;;;;2.70;1.40;;;;;;;20.40;74.49;97730.16;1221703;75;2924596;-71
2023/08/09 09:10:09;;;;;;;2.05;1.20;;;;;;;20.55;73.97;97735.88;1221673;75;2933898;-70
2023/08/09 09:12:42;;;;;;;1.75;1.25;;;;;;;21.01;71.54;97741.81;1221305;75;2926735;-68
2023/08/09 09:15:15;;;;;;;2.30;1.20;;;;;;;20.80;73.75;97738.31;1222842;75;2922027;-68
2023/08/09 09:17:48;;;;;;;2.05;1.40;;;;;;;20.94;71.89;97736.19;1222903;75;2930530;-68
2023/08/09 09:20:24;;;;;;;2.05;1.10;;;;;;;21.52;69.61;97745.31;1223697;75;2925062;-70
2023/08/09 09:23:00;;;;;;;1.50;1.20;;;;;;;20.99;69.54;97747.19;1222962;75;2931655;-69
2023/08/09 09:25:33;;;;;;;1.75;1.30;;;;;;;20.95;69.14;97734.88;1222783;75;2919123;-70
2023/08/09 09:28:07;;;;;;;1.85;1.00;;;;;;;21.05;69.13;97739.44;1222369;75;3001445;-68
2023/08/09 09:30:40;;;;;;;1.50;1.15;;;;;;;21.17;69.26;97742.69;1223207;75;2920946;-70
2023/08/09 09:33:12;;;;;;;3.25;2.55;;;;;;;21.39;69.99;97737.81;1222090;75;2920326;-67
2023/08/09 09:35:45;;;;;;;2.80;1.70;;;;;;;21.66;70.62;97741.13;1222740;75;2923869;-70
2023/08/09 09:38:22;;;;;;;1.35;1.00;;;;;;;21.72;68.53;97735.38;1223216;75;2921562;-66
2023/08/09 09:40:56;;;;;;;2.50;1.30;;;;;;;22.20;66.57;97747.69;1222216;75;2920674;-67
2023/08/09 09:43:29;;;;;;;3.05;1.40;;;;;;;22.27;66.54;97738.59;1222863;75;2925126;-68
2023/08/09 09:46:02;;;;;;;3.90;2.75;;;;;;;21.74;67.08;97752.31;1223185;75;2928474;-70
2023/08/09 09:48:34;;;;;;;2.80;1.80;;;;;;;21.52;67.84;97737.72;1222046;75;2946559;-69
2023/08/09 09:51:07;;;;;;;5.50;1.40;;;;;;;21.65;68.13;97748.75;1221858;75;2917255;-69
2023/08/09 09:53:43;;;;;;;2.80;1.45;;;;;;;21.66;67.21;97744.66;1222150;75;2927696;-69
2023/08/09 09:56:16;;;;;;;3.20;1.40;;;;;;;21.66;67.17;97746.69;1222208;75;2922353;-69
2023/08/09 09:58:49;;;;;;;2.45;1.50;;;;;;;21.58;67.02;97757.81;1222488;75;2924217;-67
2023/08/09 10:01:27;;;;;;;2.80;1.40;;;;;;;21.69;65.81;97754.72;1222630;75;2929160;-69
2023/08/09 10:04:08;;;;;;;2.00;1.10;;;;;;;21.68;66.97;97747.63;1222844;75;2926981;-68
2023/08/09 10:06:44;;;;;;;2.05;1.05;;;;;;;21.53;68.84;97769.09;1223098;75;2929189;-69
2023/08/09 10:09:21;;;;;;;2.90;1.10;;;;;;;21.56;68.81;97752.03;1222958;75;2923591;-69
2023/08/09 10:11:55;;;;;;;2.85;1.60;;;;;;;21.11;71.32;97758.03;1222741;75;2918203;-69
2023/08/09 10:14:32;;;;;;;3.75;1.45;;;;;;;21.39;69.20;97754.50;1223811;75;2923905;-69
2023/08/09 10:17:06;;;;;;;1.75;1.10;;;;;;;21.46;70.32;97749.00;1222827;75;2925390;-67
2023/08/09 10:19:40;;;;;;;2.40;1.30;;;;;;;21.69;68.76;97749.16;1223819;75;2922788;-71
2023/08/09 10:22:13;;;;;;;2.10;1.05;;;;;;;21.79;68.79;97754.94;1222712;75;2924708;-69
2023/08/09 10:24:53;;;;;;;1.65;0.80;;;;;;;22.00;67.39;97754.09;1223995;75;2921366;-71
2023/08/09 10:27:52;;;;;;;2.05;1.50;;;;;;;21.72;65.96;97747.28;1222870;75;2929451;-68
2023/08/09 10:30:31;;;;;;;3.50;2.20;;;;;;;21.74;64.39;97749.50;1224238;75;2923689;-67
2023/08/09 10:33:04;;;;;;;2.40;1.70;;;;;;;22.26;63.62;97753.81;1223472;75;2922799;-71
2023/08/09 10:35:54;;;;;;;3.75;2.90;;;;;;;22.81;63.10;97746.28;1223711;75;2926386;-70
2023/08/09 10:38:45;;;;;;;2.45;1.40;;;;;;;22.26;63.95;97747.50;1223478;75;2922283;-70
2023/08/09 10:41:28;;;;;;;1.50;0.90;;;;;;;22.91;62.78;97736.03;1222904;75;2919951;-69
2023/08/09 10:44:06;;;;;;;2.20;0.90;;;;;;;22.86;62.23;97745.34;1223591;75;2927622;-68
2023/08/09 10:46:39;;;;;;;1.05;0.80;;;;;;;23.51;60.69;97745.66;1223409;75;2919446;-67
2023/08/09 10:49:12;;;;;;;1.45;0.70;;;;;;;23.43;59.67;97739.38;1223670;75;2918654;-67
2023/08/09 10:51:50;;;;;;;1.30;0.95;;;;;;;23.23;60.26;97749.44;1223689;75;2916865;-70
2023/08/09 10:54:25;;;;;;;0.85;0.70;;;;;;;23.80;59.39;97751.00;1222222;75;2916251;-70
2023/08/09 10:57:10;;;;;;;1.45;1.10;;;;;;;23.63;60.41;97748.81;1223036;75;2930287;-69
2023/08/09 10:59:46;;;;;;;3.10;0.80;;;;;;;23.07;60.10;97736.81;1223465;75;2921181;-70
2023/08/09 11:02:20;;;;;;;1.70;1.00;;;;;;;22.71;60.27;97740.50;1222349;75;2924657;-70
2023/08/09 11:04:57;;;;;;;1.65;0.90;;;;;;;22.63;60.93;97750.91;1221171;75;2925155;-70
2023/08/09 11:07:31;;;;;;;1.25;0.70;;;;;;;22.52;62.11;97746.44;1222713;75;2928145;-68
2023/08/09 11:10:04;;;;;;;1.95;0.70;;;;;;;23.10;60.20;97739.22;1222499;75;2933492;-70
2023/08/09 11:12:39;;;;;;;0.90;0.60;;;;;;;23.72;59.53;97733.50;1222817;75;2929532;-69
2023/08/09 11:15:12;;;;;;;0.40;0.40;;;;;;;23.98;58.69;97738.63;1223819;75;2928290;-69
2023/08/09 11:17:52;;;;;;;0.55;0.55;;;;;;;23.90;59.12;97734.38;1223825;75;2920121;-69
2023/08/09 11:20:24;;;;;;;0.35;0.35;;;;;;;24.30;56.25;97739.22;1223714;75;2921465;-67
2023/08/09 11:22:58;;;;;;;0.40;0.35;;;;;;;24.38;57.47;97729.44;1223326;75;2923370;-70
2023/08/09 11:25:33;;;;;;;0.65;0.40;;;;;;;24.37;58.24;97733.56;1223795;75;2921745;-71
2023/08/09 11:28:14;;;;;;;0.55;0.45;;;;;;;24.12;60.07;97736.31;1223353;75;2922713;-67
2023/08/09 11:30:47;;;;;;;0.75;0.60;;;;;;;24.29;56.99;97734.91;1223181;75;2923793;-69
2023/08/09 11:33:20;;;;;;;0.40;0.40;;;;;;;24.26;57.24;97736.06;1221725;75;2934474;-69
2023/08/09 11:35:53;;;;;;;0.55;0.45;;;;;;;24.06;58.37;97733.00;1224179;75;2926284;-71
2023/08/09 11:38:25;;;;;;;2.45;0.90;;;;;;;24.18;58.50;97731.25;1222821;75;2907595;-68
2023/08/09 11:40:58;;;;;;;0.50;0.50;;;;;;;24.43;58.27;97734.09;1222911;75;2924382;-69
2023/08/09 11:43:34;;;;;;;1.00;0.90;;;;;;;23.79;60.13;97738.34;1223221;75;2926572;-71